createdAt,value
2022-10-14T00:02:05.572Z,68.70
2022-10-14T00:04:32.918Z,69.30
2022-10-14T00:06:59.410Z,71.80
2022-10-14T00:09:26.059Z,71.50
2022-10-14T00:11:52.622Z,74.80
2022-10-14T00:14:21.593Z,77.90
2022-10-14T00:16:49.484Z,72.30
2022-10-14T00:19:16.110Z,90.40
2022-10-14T00:21:45.112Z,75.90
2022-10-14T00:24:13.183Z,80.30
2022-10-14T00:26:40.849Z,70.30
2022-10-14T00:29:11.722Z,70.80
2022-10-14T00:31:38.335Z,65.60
2022-10-14T00:34:05.288Z,70.80
2022-10-14T00:36:31.841Z,72.50
2022-10-14T00:38:58.477Z,67.10
2022-10-14T00:41:31.568Z,68.80
2022-10-14T00:44:26.987Z,71.90
2022-10-14T00:46:55.267Z,71.00
2022-10-14T00:49:26.106Z,73.50
2022-10-14T00:51:58.279Z,55.70
2022-10-14T00:54:32.095Z,67.30
2022-10-14T00:56:58.925Z,100.50
2022-10-14T00:59:25.708Z,72.20
2022-10-14T01:01:52.344Z,71.30
2022-10-14T01:04:18.910Z,69.60
2022-10-14T01:07:04.052Z,73.70
2022-10-14T01:10:00.638Z,68.10
2022-10-14T01:13:09.228Z,65.60
2022-10-14T01:15:45.186Z,70.90
2022-10-14T01:18:32.520Z,66.50
2022-10-14T01:21:11.914Z,65.60
2022-10-14T01:23:47.511Z,70.80
2022-10-14T01:26:40.470Z,58.30
2022-10-14T01:29:44.897Z,62.20
2022-10-14T01:32:19.811Z,59.50
2022-10-14T01:35:01.429Z,61.60
2022-10-14T01:37:31.392Z,57.30
2022-10-14T01:40:03.738Z,62.00
2022-10-14T01:42:35.140Z,51.80
2022-10-14T01:47:35.011Z,57.70
2022-10-14T01:50:13.545Z,57.40
2022-10-14T01:53:11.828Z,54.70
2022-10-14T01:55:43.293Z,53.30
2022-10-14T02:00:37.799Z,58.40
2022-10-14T02:03:04.314Z,60.30
2022-10-14T02:05:43.258Z,60.10
2022-10-14T02:08:19.023Z,61.70
2022-10-14T02:11:05.842Z,55.40
2022-10-14T02:13:56.550Z,59.00
2022-10-14T02:16:44.952Z,57.90
2022-10-14T02:19:28.459Z,61.90
2022-10-14T02:22:08.608Z,51.90
2022-10-14T02:24:40.482Z,59.20
2022-10-14T02:27:11.726Z,60.80
2022-10-14T02:29:40.412Z,64.20
2022-10-14T02:32:08.746Z,59.60
2022-10-14T02:34:37.901Z,67.70
2022-10-14T02:37:05.361Z,62.30
2022-10-14T02:39:40.094Z,66.80
2022-10-14T02:42:06.948Z,61.20
2022-10-14T02:44:33.386Z,63.80
2022-10-14T02:46:59.925Z,60.60
2022-10-14T02:49:26.466Z,59.60
2022-10-14T02:51:52.878Z,65.30
2022-10-14T02:54:19.446Z,63.20
2022-10-14T02:56:45.863Z,62.40
2022-10-14T02:59:12.301Z,61.60
2022-10-14T03:01:38.978Z,65.50
2022-10-14T03:04:05.510Z,63.00
2022-10-14T03:06:31.943Z,70.90
2022-10-14T03:08:58.492Z,70.50
2022-10-14T03:11:25.027Z,68.10
2022-10-14T03:13:51.466Z,62.60
2022-10-14T03:16:18.007Z,58.60
2022-10-14T03:18:44.438Z,60.70
2022-10-14T03:21:10.841Z,55.20
2022-10-14T03:23:37.531Z,65.70
2022-10-14T03:26:04.076Z,64.50
2022-10-14T03:28:30.551Z,57.60
2022-10-14T03:30:57.147Z,57.00
2022-10-14T03:33:25.999Z,64.40
2022-10-14T03:35:53.503Z,63.00
2022-10-14T03:38:20.332Z,59.30
2022-10-14T03:40:46.740Z,63.70
2022-10-14T03:43:13.199Z,58.90
2022-10-14T03:45:39.769Z,63.70
2022-10-14T03:48:06.421Z,65.40
2022-10-14T03:50:32.832Z,61.60
2022-10-14T03:52:59.290Z,66.20
2022-10-14T03:55:25.829Z,61.80
2022-10-14T03:57:52.371Z,62.50
2022-10-14T04:00:19.051Z,57.00
2022-10-14T04:02:45.555Z,65.00
2022-10-14T04:05:12.016Z,62.90
2022-10-14T04:07:38.554Z,64.80
2022-10-14T04:10:06.529Z,74.10
2022-10-14T04:12:33.262Z,71.20
2022-10-14T04:14:59.793Z,67.80
2022-10-14T04:17:26.644Z,65.30
2022-10-14T04:19:53.577Z,67.90
2022-10-14T04:22:20.417Z,69.70
2022-10-14T04:24:47.291Z,71.70
2022-10-14T04:27:13.825Z,105.40
2022-10-14T04:29:40.363Z,97.40
2022-10-14T04:32:06.910Z,85.60
2022-10-14T04:34:33.445Z,78.70
2022-10-14T04:37:00.189Z,80.30
2022-10-14T04:39:26.807Z,69.30
2022-10-14T04:41:53.376Z,75.20
2022-10-14T04:44:19.920Z,75.70
2022-10-14T04:46:46.399Z,74.60
2022-10-14T04:49:12.856Z,63.50
2022-10-14T04:51:39.451Z,77.60
2022-10-14T04:54:05.994Z,62.60
2022-10-14T04:56:32.519Z,62.30
2022-10-14T04:58:59.049Z,65.20
2022-10-14T05:01:28.064Z,63.00
2022-10-14T05:03:56.753Z,68.50
2022-10-14T05:06:23.297Z,65.40
2022-10-14T05:08:49.772Z,65.50
2022-10-14T05:11:16.701Z,69.50
2022-10-14T05:13:43.226Z,65.90
2022-10-14T05:16:09.763Z,68.90
2022-10-14T05:18:36.617Z,65.20
2022-10-14T05:21:03.466Z,64.50
2022-10-14T05:23:30.008Z,58.20
2022-10-14T05:25:56.547Z,57.80
2022-10-14T05:28:23.225Z,57.60
2022-10-14T05:30:49.757Z,59.20
2022-10-14T05:33:16.379Z,63.30
2022-10-14T05:35:58.514Z,61.70
2022-10-14T05:38:25.438Z,66.00
2022-10-14T05:40:54.987Z,70.30
2022-10-14T05:43:21.694Z,61.50
2022-10-14T05:45:48.106Z,62.60
2022-10-14T05:48:14.597Z,58.10
2022-10-14T05:50:42.577Z,61.00
2022-10-14T05:53:09.607Z,57.10
2022-10-14T05:55:36.126Z,49.20
2022-10-14T05:58:02.784Z,44.70
2022-10-14T06:00:29.921Z,44.30
2022-10-14T06:02:59.478Z,44.70
2022-10-14T06:05:26.074Z,43.00
2022-10-14T06:07:52.600Z,38.80
2022-10-14T06:10:19.128Z,40.40
2022-10-14T06:12:45.794Z,36.90
2022-10-14T06:15:12.235Z,37.50
2022-10-14T06:17:38.769Z,33.60
2022-10-14T06:20:05.928Z,34.10
2022-10-14T06:22:32.673Z,30.90
2022-10-14T06:25:03.858Z,31.70
2022-10-14T06:27:30.897Z,34.40
2022-10-14T06:29:57.508Z,33.00
2022-10-14T06:32:24.401Z,32.90
2022-10-14T06:34:51.128Z,37.30
2022-10-14T06:37:17.551Z,36.10
2022-10-14T06:39:44.061Z,34.90
2022-10-14T06:42:13.067Z,49.70
2022-10-14T06:44:40.029Z,45.80
2022-10-14T06:47:07.344Z,50.30
2022-10-14T06:49:34.435Z,38.40
2022-10-14T06:52:00.845Z,51.50
2022-10-14T06:54:27.299Z,41.10
2022-10-14T06:56:56.519Z,33.00
2022-10-14T06:59:23.057Z,34.60
2022-10-14T07:01:49.597Z,29.90
2022-10-14T07:04:16.133Z,32.80
2022-10-14T07:06:42.773Z,32.60
2022-10-14T07:09:09.252Z,36.50
2022-10-14T07:11:35.750Z,35.00
2022-10-14T07:14:02.287Z,32.70
2022-10-14T07:16:28.832Z,36.80
2022-10-14T07:18:55.674Z,39.90
2022-10-14T07:21:22.115Z,27.90
2022-10-14T07:23:48.747Z,33.30
2022-10-14T07:26:15.391Z,29.10
2022-10-14T07:28:41.975Z,28.80
2022-10-14T07:31:10.588Z,33.40
2022-10-14T07:33:39.413Z,33.30
2022-10-14T07:36:09.514Z,31.20
2022-10-14T07:38:36.053Z,39.10
2022-10-14T07:41:05.903Z,34.50
2022-10-14T07:43:34.206Z,42.10
2022-10-14T07:46:05.726Z,36.20
2022-10-14T07:48:45.333Z,32.90
2022-10-14T07:51:20.109Z,30.70
2022-10-14T07:53:46.570Z,31.80
2022-10-14T07:56:13.389Z,34.70
2022-10-14T07:58:44.250Z,32.90
2022-10-14T08:01:11.076Z,31.00
2022-10-14T08:03:37.824Z,32.00
2022-10-14T08:06:05.896Z,28.90
2022-10-14T08:08:32.643Z,29.60
2022-10-14T08:11:04.919Z,31.10
2022-10-14T08:13:32.600Z,30.70
2022-10-14T08:15:59.456Z,30.70
2022-10-14T08:18:26.606Z,25.10
2022-10-14T08:20:53.610Z,26.70
2022-10-14T08:23:20.983Z,27.10
2022-10-14T08:25:49.623Z,30.60
2022-10-14T08:28:16.318Z,35.20
2022-10-14T08:30:43.191Z,31.00
2022-10-14T08:33:09.618Z,32.10
2022-10-14T08:35:36.278Z,32.20
2022-10-14T08:38:02.813Z,29.60
2022-10-14T08:40:33.500Z,31.40
2022-10-14T08:43:16.281Z,30.90
2022-10-14T08:45:47.942Z,27.50
2022-10-14T08:48:23.591Z,25.50
2022-10-14T08:50:56.677Z,27.40
2022-10-14T08:53:28.766Z,27.60
2022-10-14T08:55:59.033Z,25.90
2022-10-14T08:58:31.266Z,20.10
2022-10-14T09:01:03.145Z,22.90
2022-10-14T09:03:31.118Z,22.50
2022-10-14T09:06:05.794Z,23.60
2022-10-14T09:08:44.778Z,25.10
2022-10-14T09:11:15.882Z,20.60
2022-10-14T09:13:47.102Z,24.20
2022-10-14T09:16:20.548Z,21.20
2022-10-14T09:18:54.790Z,19.30
2022-10-14T09:21:48.050Z,19.70
2022-10-14T09:24:21.870Z,20.90
2022-10-14T09:27:09.177Z,23.60
2022-10-14T09:30:01.431Z,23.80
2022-10-14T09:32:39.779Z,19.00
2022-10-14T09:35:15.092Z,23.40
2022-10-14T09:37:41.839Z,20.70
2022-10-14T09:40:32.579Z,25.10
2022-10-14T09:43:10.348Z,25.30
2022-10-14T09:46:08.331Z,23.50
2022-10-14T09:48:37.539Z,24.30
2022-10-14T09:51:10.647Z,23.70
2022-10-14T09:53:52.246Z,19.90
2022-10-14T09:56:41.823Z,21.00
2022-10-14T09:59:20.337Z,21.10
2022-10-14T10:01:55.646Z,21.00
2022-10-14T10:04:41.806Z,20.30
2022-10-14T10:07:31.717Z,21.80
2022-10-14T10:10:16.421Z,20.40
2022-10-14T10:12:43.003Z,23.00
2022-10-14T10:15:20.974Z,20.00
2022-10-14T10:17:48.581Z,24.40
2022-10-14T10:20:14.981Z,18.20
2022-10-14T10:22:41.619Z,16.70
2022-10-14T10:25:08.050Z,21.20
2022-10-14T10:27:38.131Z,16.60
2022-10-14T10:30:29.423Z,18.70
2022-10-14T10:33:24.608Z,15.80
2022-10-14T10:38:50.587Z,17.40
2022-10-14T10:41:54.724Z,14.10
2022-10-14T10:44:33.923Z,16.70
2022-10-14T10:47:39.489Z,14.40
2022-10-14T10:50:21.265Z,14.10
2022-10-14T10:53:10.459Z,18.00
2022-10-14T10:56:08.876Z,13.90
2022-10-14T10:58:40.496Z,15.70
2022-10-14T11:01:29.965Z,13.90
2022-10-14T11:04:26.005Z,17.90
2022-10-14T11:07:12.621Z,17.30
2022-10-14T11:10:20.732Z,15.00
2022-10-14T11:13:06.528Z,13.20
2022-10-14T11:15:52.941Z,13.70
2022-10-14T11:18:37.808Z,18.00
2022-10-14T11:21:20.060Z,10.80
2022-10-14T11:23:50.806Z,12.20
2022-10-14T11:26:56.204Z,14.40
2022-10-14T11:30:00.192Z,14.20
2022-10-14T11:32:41.616Z,10.60
2022-10-14T11:35:24.156Z,11.70
2022-10-14T11:38:41.461Z,12.00
2022-10-14T11:41:34.115Z,12.40
2022-10-14T11:44:17.351Z,10.50
2022-10-14T11:46:51.382Z,11.40
2022-10-14T11:49:34.176Z,14.00
2022-10-14T11:52:10.350Z,16.10
2022-10-14T11:54:39.042Z,12.80
2022-10-14T11:57:52.481Z,16.10
2022-10-14T12:00:39.194Z,19.70
2022-10-14T12:03:41.703Z,19.80
2022-10-14T12:06:21.732Z,15.60
2022-10-14T12:09:13.672Z,12.30
2022-10-14T12:11:52.656Z,12.40
2022-10-14T12:14:20.782Z,13.20
2022-10-14T12:16:49.286Z,12.40
2022-10-14T12:19:25.684Z,11.50
2022-10-14T12:22:04.980Z,10.10
2022-10-14T12:24:37.419Z,9.50
2022-10-14T12:27:09.462Z,10.20
2022-10-14T12:29:47.919Z,9.60
2022-10-14T12:32:19.741Z,11.40
2022-10-14T12:34:51.872Z,9.10
2022-10-14T12:37:27.321Z,11.60
2022-10-14T12:40:22.953Z,11.00
2022-10-14T12:43:01.586Z,9.60
2022-10-14T12:45:31.565Z,9.50
2022-10-14T12:48:04.910Z,11.90
2022-10-14T12:50:37.228Z,8.80
2022-10-14T12:53:18.977Z,10.90
2022-10-14T12:55:53.547Z,12.20
2022-10-14T12:58:39.282Z,8.90
2022-10-14T13:01:16.081Z,10.70
2022-10-14T13:03:53.686Z,9.30
2022-10-14T13:06:40.742Z,11.90
2022-10-14T13:09:13.092Z,10.00
2022-10-14T13:12:00.821Z,8.50
2022-10-14T13:14:30.281Z,9.80
2022-10-14T13:17:02.586Z,8.80
2022-10-14T13:19:34.968Z,10.10
2022-10-14T13:22:03.720Z,11.20
2022-10-14T13:24:32.915Z,13.70
2022-10-14T13:27:16.525Z,10.50
2022-10-14T13:29:58.250Z,9.80
2022-10-14T13:32:35.139Z,11.90
2022-10-14T13:35:09.746Z,15.20
2022-10-14T13:37:45.927Z,12.40
2022-10-14T13:40:35.411Z,9.40
2022-10-14T13:43:42.741Z,15.80
2022-10-14T13:46:22.056Z,12.50
2022-10-14T13:48:55.862Z,18.00
2022-10-14T13:51:38.780Z,12.50
2022-10-14T13:54:11.348Z,11.40
2022-10-14T13:56:37.938Z,12.80
2022-10-14T13:59:32.950Z,13.70
2022-10-14T14:02:21.133Z,13.60
2022-10-14T14:04:51.967Z,14.90
2022-10-14T14:07:58.983Z,20.80
2022-10-14T14:10:11.136Z,22.80
2022-10-14T14:12:42.663Z,20.70
2022-10-14T14:15:21.214Z,21.30
2022-10-14T14:17:47.724Z,25.70
2022-10-14T14:20:20.225Z,18.50
2022-10-14T14:22:46.841Z,35.10
2022-10-14T14:25:36.672Z,15.20
2022-10-14T14:28:06.130Z,23.60
2022-10-14T14:30:35.033Z,35.60
2022-10-14T14:33:10.481Z,22.50
2022-10-14T14:35:37.326Z,89.60
2022-10-14T14:38:04.060Z,53.90
2022-10-14T14:40:31.539Z,47.50
2022-10-14T14:43:02.160Z,31.20
2022-10-14T14:45:44.083Z,25.60
2022-10-14T14:48:15.430Z,34.30
2022-10-14T14:50:44.789Z,109.80
2022-10-14T14:53:18.796Z,65.80
2022-10-14T14:55:55.951Z,38.80
2022-10-14T14:58:39.275Z,48.20
2022-10-14T15:01:07.544Z,31.50
2022-10-14T15:04:12.525Z,37.90
2022-10-14T15:06:37.198Z,40.50
2022-10-14T15:09:14.998Z,36.30
2022-10-14T15:11:54.484Z,35.20
2022-10-14T15:14:52.312Z,36.10
2022-10-14T15:17:34.630Z,36.10
2022-10-14T15:20:03.822Z,31.90
2022-10-14T15:22:32.316Z,35.90
2022-10-14T15:25:08.593Z,38.60
2022-10-14T15:27:35.015Z,39.30
2022-10-14T15:30:22.346Z,39.80
2022-10-14T15:32:50.488Z,29.70
2022-10-14T15:35:20.174Z,27.10
2022-10-14T15:37:48.415Z,28.10
2022-10-14T15:40:19.028Z,28.70
2022-10-14T15:42:46.919Z,27.30
2022-10-14T15:45:14.069Z,33.60
2022-10-14T15:47:40.926Z,31.20
2022-10-14T15:50:19.955Z,74.90
2022-10-14T15:52:46.908Z,62.30
2022-10-14T15:55:15.804Z,59.70
2022-10-14T15:57:42.491Z,36.40
2022-10-14T16:00:09.626Z,40.00
2022-10-14T16:02:36.342Z,35.30
2022-10-14T16:05:21.206Z,34.90
2022-10-14T16:07:48.671Z,57.60
2022-10-14T16:10:18.017Z,41.60
2022-10-14T16:12:45.032Z,38.30
2022-10-14T16:15:39.522Z,33.00
2022-10-14T16:18:06.042Z,32.90
2022-10-14T16:20:32.810Z,33.30
2022-10-14T16:22:59.398Z,31.60
2022-10-14T16:25:34.105Z,86.80
2022-10-14T16:28:01.120Z,93.30
2022-10-14T16:30:28.221Z,72.70
2022-10-14T16:32:55.158Z,61.80
2022-10-14T16:35:21.680Z,83.90
2022-10-14T16:37:48.218Z,73.00
2022-10-14T16:40:15.167Z,61.50
2022-10-14T16:42:41.706Z,51.80
2022-10-14T16:45:08.893Z,40.70
2022-10-14T16:47:35.402Z,42.70
2022-10-14T16:50:01.954Z,84.80
2022-10-14T16:52:28.497Z,54.50
2022-10-14T16:54:54.955Z,73.90
2022-10-14T16:57:21.602Z,78.10
2022-10-14T16:59:48.206Z,66.50
2022-10-14T17:02:16.900Z,57.80
2022-10-14T17:04:43.438Z,62.50
2022-10-14T17:07:10.421Z,51.50
2022-10-14T17:09:36.944Z,55.00
2022-10-14T17:12:06.931Z,54.00
2022-10-14T17:14:36.564Z,56.30
2022-10-14T17:17:03.615Z,57.10
2022-10-14T17:19:30.249Z,58.80
2022-10-14T17:21:56.722Z,63.70
2022-10-14T17:24:23.587Z,68.10
2022-10-14T17:26:50.185Z,87.00
2022-10-14T17:29:16.661Z,95.00
2022-10-14T17:31:43.976Z,94.30
2022-10-14T17:34:10.521Z,182.90
2022-10-14T17:36:37.376Z,84.70
2022-10-14T17:39:04.005Z,83.00
2022-10-14T17:41:30.651Z,77.80
2022-10-14T17:43:58.534Z,84.80
2022-10-14T17:46:26.001Z,88.40
2022-10-14T17:48:54.748Z,84.70
2022-10-14T17:51:21.211Z,95.30
2022-10-14T17:53:47.602Z,114.70
2022-10-14T17:56:14.203Z,171.30
2022-10-14T17:58:40.708Z,97.30
2022-10-14T18:01:09.864Z,89.10
2022-10-14T18:03:39.557Z,100.90
2022-10-14T18:06:20.966Z,122.10
2022-10-14T18:11:19.355Z,103.00
2022-10-14T18:13:53.107Z,96.80
2022-10-14T18:16:19.542Z,120.00
2022-10-14T18:18:45.959Z,99.00
2022-10-14T18:21:12.391Z,116.20
2022-10-14T18:23:40.666Z,101.40
2022-10-14T18:26:15.494Z,103.50
2022-10-14T18:28:44.450Z,93.90
2022-10-14T18:31:16.323Z,100.80
2022-10-14T18:33:43.618Z,95.60
2022-10-14T18:36:13.156Z,103.40
2022-10-14T18:38:40.442Z,107.40
2022-10-14T18:41:10.933Z,114.30
2022-10-14T18:43:37.770Z,97.30
2022-10-14T18:46:04.230Z,115.00
2022-10-14T18:48:31.063Z,118.90
2022-10-14T18:51:01.673Z,120.60
2022-10-14T18:53:29.573Z,81.90
2022-10-14T18:55:58.145Z,127.70
2022-10-14T18:58:27.513Z,120.40
2022-10-14T19:00:54.022Z,125.70
2022-10-14T19:03:20.444Z,150.70
2022-10-14T19:05:46.979Z,156.60
2022-10-14T19:10:45.178Z,167.70
2022-10-14T19:13:11.617Z,153.30
2022-10-14T19:15:43.206Z,150.50
2022-10-14T19:18:11.864Z,145.60
2022-10-14T19:20:38.811Z,149.80
2022-10-14T19:23:05.251Z,145.60
2022-10-14T19:25:31.701Z,134.40
2022-10-14T19:27:58.529Z,135.80
2022-10-14T19:30:25.589Z,146.70
2022-10-14T19:32:52.047Z,137.20
2022-10-14T19:37:49.925Z,131.60
2022-10-14T19:40:19.864Z,136.00
2022-10-14T19:42:49.468Z,131.30
2022-10-14T19:45:16.006Z,131.00
2022-10-14T19:47:42.650Z,123.70
2022-10-14T19:50:10.045Z,127.40
2022-10-14T19:52:36.551Z,128.60
2022-10-14T19:55:03.908Z,127.40
2022-10-14T19:57:30.347Z,134.40
2022-10-14T19:59:56.888Z,144.50
2022-10-14T20:02:23.299Z,141.00
2022-10-14T20:04:49.766Z,132.30
2022-10-14T20:07:16.288Z,127.90
2022-10-14T20:09:42.751Z,124.00
2022-10-14T20:12:09.177Z,139.20
2022-10-14T20:14:35.626Z,136.90
2022-10-14T20:17:02.166Z,129.80
2022-10-14T20:19:28.709Z,129.50
2022-10-14T20:21:55.147Z,149.60
2022-10-14T20:24:21.689Z,148.10
2022-10-14T20:26:48.143Z,146.50
2022-10-14T20:29:14.646Z,128.70
2022-10-14T20:31:41.109Z,124.50
2022-10-14T20:34:11.156Z,120.50
2022-10-14T20:36:37.980Z,110.40
2022-10-14T20:39:04.628Z,106.80
2022-10-14T20:41:31.192Z,111.60
2022-10-14T20:43:57.701Z,116.00
2022-10-14T20:46:24.415Z,124.80
2022-10-14T20:48:56.021Z,123.60
2022-10-14T20:51:22.900Z,143.40
2022-10-14T20:53:49.599Z,155.50
2022-10-14T20:56:16.342Z,158.40
2022-10-14T20:58:43.088Z,138.90
2022-10-14T21:01:17.067Z,144.40
2022-10-14T21:03:45.809Z,137.70
2022-10-14T21:06:15.832Z,168.10
2022-10-14T21:08:42.678Z,190.40
2022-10-14T21:11:15.412Z,166.00
2022-10-14T21:13:51.371Z,164.30
2022-10-14T21:16:21.696Z,153.50
2022-10-14T21:18:53.692Z,147.00
2022-10-14T21:21:26.332Z,146.20
2022-10-14T21:23:52.845Z,142.60
2022-10-14T21:26:19.488Z,146.40
2022-10-14T21:28:46.090Z,151.10
2022-10-14T21:31:17.354Z,123.90
2022-10-14T21:33:45.924Z,134.50
2022-10-14T21:36:14.277Z,121.50
2022-10-14T21:38:41.454Z,127.80
2022-10-14T21:41:08.614Z,120.90
2022-10-14T21:43:36.866Z,125.90
2022-10-14T21:46:12.226Z,127.50
2022-10-14T21:48:40.178Z,127.70
2022-10-14T21:51:15.865Z,134.10
2022-10-14T21:53:44.114Z,128.70
2022-10-14T21:56:11.877Z,140.50
2022-10-14T21:58:38.567Z,130.70
2022-10-14T22:01:19.082Z,132.70
2022-10-14T22:03:45.632Z,127.50
2022-10-14T22:06:16.688Z,131.70
2022-10-14T22:08:46.154Z,126.00
2022-10-14T22:11:37.224Z,140.30
2022-10-14T22:14:05.574Z,130.00
2022-10-14T22:16:32.855Z,140.80
2022-10-14T22:19:00.944Z,131.70
2022-10-14T22:21:29.150Z,134.60
2022-10-14T22:23:56.061Z,129.20
2022-10-14T22:26:24.450Z,128.50
2022-10-14T22:28:58.460Z,128.70
2022-10-14T22:31:25.627Z,131.70
2022-10-14T22:33:52.295Z,120.60
2022-10-14T22:36:23.914Z,115.00
2022-10-14T22:38:52.960Z,116.60
2022-10-14T22:41:20.832Z,126.10
2022-10-14T22:43:49.543Z,116.30
2022-10-14T22:46:17.922Z,121.40
2022-10-14T22:48:44.412Z,133.40
2022-10-14T22:51:16.728Z,127.50
2022-10-14T22:53:44.893Z,118.50
2022-10-14T22:56:14.843Z,131.20
2022-10-14T22:58:41.540Z,115.50
2022-10-14T23:01:16.992Z,114.60
2022-10-14T23:03:43.841Z,110.30
2022-10-14T23:06:12.887Z,108.20
2022-10-14T23:08:40.303Z,113.00
2022-10-14T23:11:07.770Z,104.50
2022-10-14T23:13:34.263Z,107.00
2022-10-14T23:16:03.414Z,101.30
2022-10-14T23:18:32.483Z,101.60
2022-10-14T23:20:59.153Z,105.50
2022-10-14T23:23:25.592Z,104.60
2022-10-14T23:25:52.065Z,105.80
2022-10-14T23:28:18.604Z,101.10
2022-10-14T23:30:45.049Z,106.60
2022-10-14T23:33:11.660Z,105.00
2022-10-14T23:35:38.653Z,98.60
2022-10-14T23:38:05.406Z,94.10
2022-10-14T23:40:31.978Z,102.80
2022-10-14T23:42:58.551Z,101.30
2022-10-14T23:45:28.776Z,111.40
2022-10-14T23:47:55.316Z,106.00
2022-10-14T23:50:21.855Z,106.40
2022-10-14T23:52:48.388Z,99.80
2022-10-14T23:55:14.942Z,104.70
2022-10-14T23:57:41.498Z,105.70
